Time;durP1;ratioP1;P1;durP2;ratioP2;P2;SDS_P1;SDS_P2;PMS_P1;PMS_P2;Temp;Humidity;BMP_temperature;BMP_pressure;BME280_temperature;BME280_humidity;BME280_pressure;Samples;Min_cycle;Max_cycle;Signal;HPM_P1;HPM_P2
2022/01/29 00:03:50;;;;;;;41.40;24.47;;;;;5.80;102560.00;;;;10427496;28;20218;-80
2022/01/29 00:08:54;;;;;;;48.47;24.80;;;;;5.80;102559.00;;;;10441963;28;20229;-80
2022/01/29 00:13:56;;;;;;;42.70;23.90;;;;;5.80;102553.00;;;;10485636;28;20538;-80
2022/01/29 00:18:58;;;;;;;44.83;25.00;;;;;5.80;102554.00;;;;10468892;28;20611;-79
2022/01/29 00:24:00;;;;;;;47.07;24.13;;;;;5.80;102543.00;;;;10484874;28;20263;-79
2022/01/29 00:29:10;;;;;;;47.30;25.13;;;;;5.80;102533.00;;;;10501488;28;20197;-80
2022/01/29 00:34:12;;;;;;;47.43;24.20;;;;;5.80;102521.00;;;;10485319;28;20208;-79
2022/01/29 00:39:14;;;;;;;51.27;26.67;;;;;5.80;102512.00;;;;10501858;28;20197;-79
2022/01/29 00:44:17;;;;;;;43.67;24.23;;;;;5.90;102509.00;;;;10492948;28;20221;-77
2022/01/29 00:49:19;;;;;;;46.17;23.93;;;;;5.80;102509.00;;;;10492763;28;20197;-80
2022/01/29 00:54:21;;;;;;;47.50;24.40;;;;;5.80;102505.00;;;;10474456;28;20327;-79
2022/01/29 00:59:23;;;;;;;46.70;23.13;;;;;5.80;102494.00;;;;10475233;28;21071;-77
2022/01/29 01:04:25;;;;;;;50.03;24.97;;;;;5.70;102489.00;;;;10492059;28;20315;-78
2022/01/29 01:09:26;;;;;;;50.30;25.77;;;;;5.70;102489.00;;;;10457362;28;20231;-77
2022/01/29 01:14:28;;;;;;;46.27;23.47;;;;;5.70;102480.00;;;;10482178;28;20189;-78
2022/01/29 01:19:30;;;;;;;54.73;24.43;;;;;5.70;102464.00;;;;10465613;28;20194;-77
2022/01/29 01:24:32;;;;;;;49.33;25.37;;;;;5.70;102464.00;;;;10449723;28;20560;-77
2022/01/29 01:29:35;;;;;;;58.17;25.67;;;;;5.70;102454.00;;;;10466010;28;20219;-77
2022/01/29 01:34:41;;;;;;;57.63;27.10;;;;;5.70;102450.00;;;;10468554;28;20189;-77
2022/01/29 01:39:43;;;;;;;40.47;21.07;;;;;5.70;102433.00;;;;10465714;28;20198;-77
2022/01/29 01:44:47;;;;;;;54.13;25.70;;;;;5.80;102420.00;;;;10483000;28;20214;-77
2022/01/29 01:49:49;;;;;;;55.47;25.63;;;;;5.80;102438.00;;;;10482825;28;20189;-77
2022/01/29 01:54:51;;;;;;;56.57;25.10;;;;;5.90;102416.00;;;;10465747;28;20251;-77
2022/01/29 01:59:53;;;;;;;49.27;23.33;;;;;5.90;102402.00;;;;10482212;28;20204;-79
2022/01/29 02:04:55;;;;;;;48.07;23.10;;;;;5.90;102402.00;;;;10464450;28;20248;-77
2022/01/29 02:09:57;;;;;;;47.50;23.77;;;;;5.90;102393.00;;;;10468374;28;20224;-77
2022/01/29 02:15:04;;;;;;;48.17;24.47;;;;;5.90;102391.00;;;;10498126;28;20538;-77
2022/01/29 02:20:07;;;;;;;46.80;23.83;;;;;5.90;102381.00;;;;10481656;28;20243;-77
2022/01/29 02:25:29;;;;;;;44.87;22.83;;;;;5.90;102364.00;;;;10497880;28;20206;-77
2022/01/29 02:30:33;;;;;;;45.73;22.97;;;;;6.00;102359.00;;;;10481367;28;20769;-77
2022/01/29 02:35:46;;;;;;;36.70;19.93;;;;;6.00;102339.00;;;;10464812;28;20197;-77
2022/01/29 02:40:50;;;;;;;40.47;21.97;;;;;6.00;102340.00;;;;10464541;28;20205;-77
2022/01/29 02:45:54;;;;;;;32.70;18.60;;;;;6.00;102328.00;;;;10481027;28;20637;-77
2022/01/29 02:50:56;;;;;;;34.27;18.47;;;;;6.10;102336.00;;;;10464571;28;20190;-77
2022/01/29 02:55:58;;;;;;;32.80;18.83;;;;;6.10;102323.00;;;;10464351;28;20615;-76
2022/01/29 03:01:00;;;;;;;34.17;18.67;;;;;6.10;102324.00;;;;10481259;28;20197;-79
2022/01/29 03:06:07;;;;;;;34.60;19.90;;;;;6.20;102309.00;;;;10462863;28;20224;-80
2022/01/29 03:11:11;;;;;;;28.77;17.37;;;;;6.20;102300.00;;;;10480301;28;20225;-80
2022/01/29 03:16:13;;;;;;;32.30;18.50;;;;;6.30;102308.00;;;;10447414;28;20243;-80
2022/01/29 03:21:15;;;;;;;30.80;17.90;;;;;6.30;102304.00;;;;10470090;28;20200;-78
2022/01/29 03:26:17;;;;;;;28.67;17.37;;;;;6.30;102299.00;;;;10452982;28;20213;-78
2022/01/29 03:31:20;;;;;;;27.13;17.37;;;;;6.30;102286.00;;;;10469954;28;20198;-78
2022/01/29 03:36:22;;;;;;;31.07;16.90;;;;;6.30;102297.00;;;;10453063;28;20202;-77
2022/01/29 03:41:24;;;;;;;31.77;18.63;;;;;6.40;102293.00;;;;10452971;28;20659;-78
2022/01/29 03:46:26;;;;;;;34.57;19.50;;;;;6.40;102289.00;;;;10469544;28;20226;-78
2022/01/29 03:51:28;;;;;;;28.70;17.40;;;;;6.40;102274.00;;;;10485870;28;20190;-78
2022/01/29 03:56:30;;;;;;;31.37;18.83;;;;;6.50;102274.00;;;;10469233;28;20189;-78
2022/01/29 04:01:32;;;;;;;32.83;18.67;;;;;6.50;102271.00;;;;10486203;28;20251;-78
2022/01/29 04:06:34;;;;;;;35.37;19.57;;;;;6.50;102280.00;;;;10486029;28;20583;-80
2022/01/29 04:11:38;;;;;;;32.80;17.83;;;;;6.60;102262.00;;;;10465320;28;20217;-77
2022/01/29 04:16:40;;;;;;;32.57;18.10;;;;;6.60;102267.00;;;;10469108;28;20197;-78
2022/01/29 04:21:42;;;;;;;32.07;17.27;;;;;6.60;102268.00;;;;10451850;28;20205;-78
2022/01/29 04:26:44;;;;;;;29.77;16.97;;;;;6.60;102267.00;;;;10467426;28;20339;-78
2022/01/29 04:32:07;;;;;;;29.20;18.13;;;;;6.60;102265.00;;;;10468028;28;20200;-77
2022/01/29 04:37:09;;;;;;;24.20;15.77;;;;;6.70;102258.00;;;;10467823;28;20514;-78
2022/01/29 04:42:11;;;;;;;27.90;17.67;;;;;6.70;102249.00;;;;10443036;28;20202;-78
2022/01/29 04:47:13;;;;;;;26.23;15.57;;;;;6.70;102253.00;;;;10425883;28;20218;-77
2022/01/29 04:52:15;;;;;;;28.80;17.97;;;;;6.80;102241.00;;;;10425871;28;20634;-78
2022/01/29 04:57:17;;;;;;;24.70;16.13;;;;;6.80;102233.00;;;;10426164;28;20244;-78
2022/01/29 05:02:19;;;;;;;26.63;16.47;;;;;6.80;102232.00;;;;10426158;28;20654;-78
2022/01/29 05:07:21;;;;;;;25.87;15.80;;;;;6.90;102236.00;;;;10426957;28;20225;-78
2022/01/29 05:12:30;;;;;;;25.10;16.37;;;;;6.90;102225.00;;;;10466931;28;20262;-78
2022/01/29 05:28:13;;;;;;;29.47;16.90;;;;;7.10;102224.00;;;;10450147;28;20266;-78
2022/01/29 05:33:15;;;;;;;24.13;16.17;;;;;7.10;102216.00;;;;10464190;28;20189;-78
2022/01/29 05:38:17;;;;;;;23.33;15.07;;;;;7.20;102214.00;;;;10448409;28;20204;-78
2022/01/29 05:43:20;;;;;;;20.07;14.10;;;;;7.20;102209.00;;;;10465410;28;20568;-77
2022/01/29 05:48:21;;;;;;;20.60;14.97;;;;;7.30;102210.00;;;;10466322;28;20590;-78
2022/01/29 05:53:23;;;;;;;23.60;15.83;;;;;7.30;102201.00;;;;10465406;28;20201;-78
2022/01/29 05:58:25;;;;;;;25.60;15.00;;;;;7.30;102202.00;;;;10481984;28;20185;-77
2022/01/29 06:03:27;;;;;;;23.27;14.53;;;;;7.40;102198.00;;;;10465059;28;20198;-78
2022/01/29 06:08:29;;;;;;;22.57;15.70;;;;;7.40;102187.00;;;;10465374;28;20275;-77
2022/01/29 06:13:32;;;;;;;21.17;14.90;;;;;7.40;102191.00;;;;10464750;28;20243;-78
2022/01/29 06:18:33;;;;;;;25.70;15.10;;;;;7.50;102202.00;;;;10465180;28;20219;-77
2022/01/29 06:23:37;;;;;;;21.97;13.77;;;;;7.50;102192.00;;;;10464512;28;20193;-78
2022/01/29 06:28:40;;;;;;;26.10;15.73;;;;;7.60;102192.00;;;;10497563;28;20217;-77
2022/01/29 06:33:42;;;;;;;24.63;13.87;;;;;7.60;102195.00;;;;10481464;28;20247;-77
2022/01/29 06:38:44;;;;;;;20.83;14.10;;;;;7.60;102183.00;;;;10464475;28;20201;-77
2022/01/29 06:43:45;;;;;;;21.27;13.93;;;;;7.70;102178.00;;;;10480739;28;20243;-77
2022/01/29 06:48:47;;;;;;;22.77;14.77;;;;;7.70;102165.00;;;;10463996;28;20581;-77
2022/01/29 06:53:49;;;;;;;19.33;13.90;;;;;7.70;102182.00;;;;10503025;28;20595;-77
2022/01/29 06:58:51;;;;;;;21.17;13.60;;;;;7.80;102174.00;;;;10472430;28;20645;-78
2022/01/29 07:04:10;;;;;;;23.17;14.03;;;;;7.90;102163.00;;;;10502703;28;20204;-77
2022/01/29 07:09:12;;;;;;;22.93;14.47;;;;;7.90;102177.00;;;;10471061;28;20229;-77
2022/01/29 07:14:17;;;;;;;22.67;14.87;;;;;7.90;102174.00;;;;10487970;28;20193;-77
2022/01/29 07:19:19;;;;;;;25.00;14.97;;;;;8.00;102170.00;;;;10488157;28;20181;-78
2022/01/29 07:24:21;;;;;;;22.57;15.53;;;;;8.00;102177.00;;;;10454629;28;20193;-78
2022/01/29 07:29:23;;;;;;;22.60;14.30;;;;;8.00;102163.00;;;;10471129;28;20395;-77
2022/01/29 07:34:26;;;;;;;24.30;15.27;;;;;8.10;102169.00;;;;10430114;28;20209;-78
2022/01/29 07:39:29;;;;;;;22.73;15.17;;;;;8.20;102163.00;;;;10465177;28;20193;-78
2022/01/29 07:44:31;;;;;;;23.40;15.77;;;;;8.30;102155.00;;;;10469980;28;20219;-78
2022/01/29 07:49:33;;;;;;;21.80;13.83;;;;;8.30;102163.00;;;;10486773;28;20274;-77
2022/01/29 07:54:34;;;;;;;24.07;14.53;;;;;8.40;102170.00;;;;10486798;28;20201;-77
2022/01/29 07:59:36;;;;;;;25.43;14.70;;;;;8.50;102159.00;;;;10469905;28;20236;-77
2022/01/29 08:04:38;;;;;;;21.33;13.47;;;;;8.50;102153.00;;;;10489448;28;20208;-78
2022/01/29 08:09:40;;;;;;;21.23;13.27;;;;;8.60;102160.00;;;;10506833;28;20676;-79
2022/01/29 08:14:42;;;;;;;19.43;12.93;;;;;8.60;102152.00;;;;10469788;28;20193;-79
2022/01/29 08:19:44;;;;;;;16.07;10.93;;;;;8.60;102157.00;;;;10474006;28;20607;-79
2022/01/29 08:24:46;;;;;;;16.63;11.20;;;;;8.80;102143.00;;;;10452264;28;20190;-78
2022/01/29 08:29:48;;;;;;;15.43;10.43;;;;;9.00;102156.00;;;;10438641;28;20202;-78
2022/01/29 08:34:50;;;;;;;12.87;9.97;;;;;9.20;102148.00;;;;10475369;28;20209;-79
2022/01/29 08:39:51;;;;;;;13.90;10.30;;;;;9.40;102148.00;;;;10447138;28;20200;-78
2022/01/29 08:44:58;;;;;;;12.90;9.67;;;;;9.40;102142.00;;;;10474636;28;20583;-79
2022/01/29 08:50:03;;;;;;;11.43;9.17;;;;;9.30;102141.00;;;;10479109;28;20213;-79
2022/01/29 08:55:08;;;;;;;10.67;8.50;;;;;9.30;102138.00;;;;10462062;28;20197;-80
2022/01/29 09:00:11;;;;;;;9.93;7.20;;;;;9.10;102131.00;;;;10461633;28;20189;-80
2022/01/29 09:05:13;;;;;;;10.30;7.30;;;;;9.00;102128.00;;;;10462818;28;20211;-80
2022/01/29 09:10:15;;;;;;;9.67;6.37;;;;;8.90;102126.00;;;;10472718;28;20227;-80
2022/01/29 09:15:17;;;;;;;10.50;7.53;;;;;8.90;102132.00;;;;10499335;28;20182;-80
2022/01/29 09:20:20;;;;;;;8.43;6.73;;;;;8.80;102134.00;;;;10483462;28;20200;-80
2022/01/29 09:25:22;;;;;;;9.53;7.20;;;;;8.70;102126.00;;;;10448884;28;20209;-80
2022/01/29 09:30:24;;;;;;;10.47;7.30;;;;;8.70;102113.00;;;;10462605;28;20308;-80
2022/01/29 09:35:27;;;;;;;11.90;7.67;;;;;8.80;102116.00;;;;10459435;28;20623;-80
2022/01/29 09:40:29;;;;;;;10.60;7.60;;;;;8.90;102107.00;;;;10448308;28;20209;-80
2022/01/29 09:45:31;;;;;;;11.53;8.10;;;;;9.10;102116.00;;;;10458127;28;20202;-80
2022/01/29 09:50:36;;;;;;;12.23;8.37;;;;;9.30;102107.00;;;;10481659;28;20263;-80
2022/01/29 09:55:41;;;;;;;14.00;8.77;;;;;9.50;102112.00;;;;10429023;28;20649;-80
2022/01/29 10:00:44;;;;;;;12.00;8.50;;;;;9.80;102120.00;;;;10439485;28;20189;-80
2022/01/29 10:05:52;;;;;;;12.27;8.77;;;;;9.80;102135.00;;;;10448454;28;20309;-80
2022/01/29 10:10:57;;;;;;;10.47;7.30;;;;;9.80;102146.00;;;;10430773;28;20596;-80
2022/01/29 10:16:23;;;;;;;10.63;7.80;;;;;9.90;102158.00;;;;10444927;28;20185;-80
2022/01/29 10:21:29;;;;;;;8.97;6.77;;;;;10.00;102139.00;;;;10433808;28;20205;-81
2022/01/29 10:26:39;;;;;;;10.30;6.13;;;;;10.20;102132.00;;;;10459627;28;20214;-80
2022/01/29 10:31:58;;;;;;;10.73;6.70;;;;;10.40;102138.00;;;;10448512;28;20186;-80
2022/01/29 10:37:20;;;;;;;10.63;6.40;;;;;10.70;102133.00;;;;10505425;28;20240;-79
2022/01/29 10:42:24;;;;;;;9.80;6.43;;;;;10.90;102120.00;;;;10474043;28;20611;-80
2022/01/29 10:47:26;;;;;;;9.07;5.30;;;;;11.10;102089.00;;;;10457635;28;20224;-79
2022/01/29 10:52:32;;;;;;;13.00;5.47;;;;;11.30;102075.00;;;;10454662;28;20186;-79
2022/01/29 10:57:37;;;;;;;7.53;5.13;;;;;11.30;102071.00;;;;10454429;28;20198;-79
2022/01/29 11:02:40;;;;;;;7.43;3.87;;;;;11.30;102069.00;;;;10429575;28;20210;-79
2022/01/29 11:07:52;;;;;;;5.67;4.17;;;;;11.30;102066.00;;;;10434365;28;20217;-79
2022/01/29 11:12:54;;;;;;;8.97;3.90;;;;;11.40;102060.00;;;;10486705;28;20546;-79
2022/01/29 11:17:57;;;;;;;8.37;4.30;;;;;11.60;102048.00;;;;10445865;28;20217;-80
2022/01/29 11:22:59;;;;;;;8.50;4.13;;;;;11.40;102060.00;;;;10458250;28;20194;-80
2022/01/29 11:28:16;;;;;;;6.30;3.83;;;;;11.20;102056.00;;;;10504474;28;20213;-80
2022/01/29 11:33:18;;;;;;;6.07;4.10;;;;;11.10;102044.00;;;;10487462;28;20195;-79
2022/01/29 11:38:31;;;;;;;8.07;3.77;;;;;11.20;102039.00;;;;10454684;28;20254;-80
2022/01/29 11:43:34;;;;;;;5.63;4.03;;;;;11.30;102027.00;;;;10448554;28;20191;-78
2022/01/29 11:48:51;;;;;;;6.83;4.07;;;;;11.70;102014.00;;;;10452545;28;20214;-80
2022/01/29 11:53:57;;;;;;;5.97;4.03;;;;;11.80;102007.00;;;;10468516;28;20239;-80
2022/01/29 11:59:20;;;;;;;7.50;4.10;;;;;11.70;101982.00;;;;10460345;28;20189;-79
2022/01/29 12:04:24;;;;;;;6.20;4.13;;;;;11.80;101970.00;;;;10457517;28;20689;-79
2022/01/29 12:09:29;;;;;;;10.17;3.63;;;;;11.60;101962.00;;;;10467443;28;20221;-79
2022/01/29 12:14:33;;;;;;;10.43;3.77;;;;;11.60;101947.00;;;;10469279;28;20186;-80
2022/01/29 12:19:46;;;;;;;10.40;3.07;;;;;11.50;101956.00;;;;10443081;28;20200;-79
2022/01/29 12:24:55;;;;;;;6.73;3.77;;;;;11.50;101942.00;;;;10453866;28;20198;-80
2022/01/29 12:29:57;;;;;;;8.50;3.40;;;;;11.80;101922.00;;;;10462341;28;20677;-80
2022/01/29 12:35:02;;;;;;;7.10;3.30;;;;;11.90;101932.00;;;;10466646;28;20239;-79
2022/01/29 12:40:19;;;;;;;10.83;3.60;;;;;12.20;101928.00;;;;10476253;28;20201;-79
2022/01/29 12:45:24;;;;;;;9.10;3.20;;;;;12.40;101928.00;;;;10464488;28;20197;-80
2022/01/29 12:50:30;;;;;;;5.70;2.80;;;;;12.50;101893.00;;;;10465844;28;20204;-80
2022/01/29 12:55:32;;;;;;;8.03;2.90;;;;;12.20;101898.00;;;;10466898;28;20193;-79
2022/01/29 13:00:35;;;;;;;8.53;2.57;;;;;12.10;101883.00;;;;10466343;28;20228;-79
2022/01/29 13:05:44;;;;;;;5.27;2.20;;;;;12.10;101885.00;;;;10464371;28;20217;-79
2022/01/29 13:10:46;;;;;;;8.67;2.70;;;;;12.30;101863.00;;;;10481140;28;20206;-80
2022/01/29 13:15:47;;;;;;;7.50;2.80;;;;;12.50;101869.00;;;;10454448;28;20194;-78
2022/01/29 13:20:52;;;;;;;4.57;2.57;;;;;12.90;101836.00;;;;10443949;28;20194;-79
2022/01/29 13:25:54;;;;;;;6.63;2.23;;;;;13.10;101855.00;;;;10475794;28;20267;-81
2022/01/29 13:31:04;;;;;;;7.40;2.57;;;;;12.90;101858.00;;;;10437657;28;20218;-79
2022/01/29 13:36:06;;;;;;;8.23;2.10;;;;;12.50;101879.00;;;;10454065;28;20193;-80
2022/01/29 13:41:20;;;;;;;7.30;2.50;;;;;12.50;101856.00;;;;10455465;28;20221;-79
2022/01/29 13:46:24;;;;;;;8.33;2.60;;;;;12.40;101854.00;;;;10503482;28;20564;-79
2022/01/29 13:51:36;;;;;;;6.53;2.30;;;;;12.60;101848.00;;;;10459171;28;20229;-79
2022/01/29 13:56:41;;;;;;;5.70;2.37;;;;;12.60;101847.00;;;;10472029;28;20272;-79
2022/01/29 14:01:53;;;;;;;8.97;2.87;;;;;12.90;101853.00;;;;10438402;28;20251;-79
2022/01/29 14:07:02;;;;;;;9.47;2.30;;;;;12.70;101865.00;;;;10484524;28;20214;-79
2022/01/29 14:12:25;;;;;;;6.67;2.70;;;;;13.10;101882.00;;;;10445781;28;20197;-80
2022/01/29 14:17:29;;;;;;;4.33;1.70;;;;;12.80;101863.00;;;;10470767;28;20217;-79
2022/01/29 14:22:34;;;;;;;7.77;2.00;;;;;12.40;101878.00;;;;10435316;28;20289;-80
2022/01/29 14:27:36;;;;;;;4.97;2.23;;;;;12.40;101884.00;;;;10452710;28;20192;-79
2022/01/29 14:32:41;;;;;;;6.47;2.57;;;;;12.30;101885.00;;;;10462792;28;20584;-79
2022/01/29 14:37:43;;;;;;;5.93;2.40;;;;;12.00;101894.00;;;;10479944;28;20209;-79
2022/01/29 14:42:45;;;;;;;5.47;2.17;;;;;11.90;101906.00;;;;10438563;28;20201;-79
2022/01/29 14:47:49;;;;;;;5.47;1.90;;;;;11.80;101919.00;;;;10438408;28;20248;-79
2022/01/29 14:52:51;;;;;;;5.80;2.40;;;;;11.80;101914.00;;;;10438505;28;20190;-79
2022/01/29 14:57:53;;;;;;;4.50;1.70;;;;;11.70;101928.00;;;;10421798;28;20301;-79
2022/01/29 15:02:56;;;;;;;8.80;2.33;;;;;11.60;101939.00;;;;10438564;28;20210;-79
2022/01/29 15:07:59;;;;;;;9.70;2.50;;;;;11.50;101947.00;;;;10482417;28;20231;-79
2022/01/29 15:13:02;;;;;;;9.57;2.37;;;;;11.40;101950.00;;;;10490277;28;20220;-79
2022/01/29 15:18:04;;;;;;;10.83;2.27;;;;;11.30;101934.00;;;;10494499;28;20205;-79
2022/01/29 15:23:18;;;;;;;8.40;2.17;;;;;11.30;101948.00;;;;10496714;28;20197;-79
2022/01/29 15:28:20;;;;;;;11.03;2.70;;;;;11.30;101953.00;;;;10494875;28;20189;-80
2022/01/29 15:33:22;;;;;;;7.97;2.83;;;;;11.30;101958.00;;;;10469006;28;20197;-80
2022/01/29 15:38:29;;;;;;;8.57;2.40;;;;;11.20;101953.00;;;;10465894;28;20607;-80
2022/01/29 15:43:32;;;;;;;13.87;2.90;;;;;11.20;101976.00;;;;10452772;28;20200;-80
2022/01/29 15:48:36;;;;;;;5.97;2.47;;;;;11.20;101964.00;;;;10469500;28;20217;-79
2022/01/29 15:53:38;;;;;;;8.27;2.47;;;;;11.10;101968.00;;;;10435757;28;20193;-79
2022/01/29 15:58:41;;;;;;;8.20;2.60;;;;;11.10;101971.00;;;;10414169;28;20309;-79
2022/01/29 16:03:42;;;;;;;6.77;2.97;;;;;11.10;101957.00;;;;10466943;28;20227;-79
2022/01/29 16:08:48;;;;;;;8.40;2.33;;;;;11.10;101954.00;;;;10484916;28;20232;-79
2022/01/29 16:13:54;;;;;;;7.33;2.77;;;;;11.10;101944.00;;;;10467945;28;20219;-79
2022/01/29 16:18:56;;;;;;;7.40;2.67;;;;;11.00;101953.00;;;;10476145;28;20700;-78
2022/01/29 16:23:59;;;;;;;9.97;4.20;;;;;11.00;101955.00;;;;10432736;28;20181;-78
2022/01/29 16:29:17;;;;;;;13.87;4.10;;;;;11.10;101945.00;;;;10461776;28;20252;-79
2022/01/29 16:34:37;;;;;;;9.80;2.87;;;;;11.00;101961.00;;;;10457797;28;20218;-78
2022/01/29 16:39:53;;;;;;;11.30;3.23;;;;;11.00;101937.00;;;;10499572;28;20224;-79
2022/01/29 16:45:11;;;;;;;10.97;3.63;;;;;10.90;101937.00;;;;10448167;28;20201;-79
2022/01/29 16:50:51;;;;;;;9.37;3.40;;;;;10.80;101936.00;;;;10482241;28;20310;-80
2022/01/29 16:56:03;;;;;;;11.30;4.60;;;;;10.50;101934.00;;;;10471478;28;20202;-78
2022/01/29 17:01:53;;;;;;;8.63;3.63;;;;;10.50;101932.00;;;;10429161;28;20604;-79
2022/01/29 17:07:20;;;;;;;14.53;3.37;;;;;10.40;101967.00;;;;10479140;28;20201;-79
2022/01/29 17:13:05;;;;;;;12.23;3.40;;;;;10.40;101954.00;;;;10437508;28;20198;-79
2022/01/29 17:18:08;;;;;;;13.63;4.37;;;;;10.40;101970.00;;;;10477016;28;20202;-80
2022/01/29 17:23:10;;;;;;;9.87;4.43;;;;;10.30;101976.00;;;;10421290;28;20296;-79
2022/01/29 17:28:14;;;;;;;11.80;4.03;;;;;10.20;101982.00;;;;10481263;28;20193;-79
2022/01/29 17:33:18;;;;;;;10.37;3.60;;;;;10.20;101990.00;;;;10462122;28;20189;-79
2022/01/29 17:38:24;;;;;;;10.03;4.07;;;;;10.10;101985.00;;;;10449674;28;20693;-79
2022/01/29 17:43:27;;;;;;;12.63;4.97;;;;;10.10;102004.00;;;;10470604;28;20285;-79
2022/01/29 17:48:29;;;;;;;15.60;3.93;;;;;10.00;102006.00;;;;10481614;28;20188;-79
2022/01/29 17:53:34;;;;;;;13.43;4.37;;;;;9.90;102011.00;;;;10425838;28;20646;-79
2022/01/29 17:58:36;;;;;;;8.60;4.03;;;;;10.00;102011.00;;;;10477496;28;20320;-79
2022/01/29 18:03:41;;;;;;;13.80;4.10;;;;;10.10;102011.00;;;;10520518;28;20193;-78
2022/01/29 18:08:43;;;;;;;11.23;4.40;;;;;10.10;102022.00;;;;10458917;28;20210;-79
2022/01/29 18:13:45;;;;;;;12.77;3.83;;;;;10.20;102022.00;;;;10478713;28;20189;-79
2022/01/29 18:18:47;;;;;;;14.70;4.20;;;;;10.20;102046.00;;;;10449115;28;20235;-79
2022/01/29 18:23:49;;;;;;;14.73;3.97;;;;;10.10;102046.00;;;;10477875;28;20197;-79
2022/01/29 18:28:51;;;;;;;13.53;3.80;;;;;10.10;102049.00;;;;10446524;28;20209;-79
2022/01/29 18:33:53;;;;;;;18.40;4.90;;;;;10.10;102063.00;;;;10453493;28;20580;-80
2022/01/29 18:38:56;;;;;;;10.33;4.40;;;;;10.00;102058.00;;;;10471228;28;20209;-79
2022/01/29 18:43:58;;;;;;;9.87;3.53;;;;;9.90;102051.00;;;;10494040;28;20560;-80
2022/01/29 18:49:00;;;;;;;13.90;3.93;;;;;10.00;102077.00;;;;10450810;28;20213;-80
2022/01/29 18:54:04;;;;;;;13.83;4.60;;;;;10.00;102082.00;;;;10428335;28;20217;-79
2022/01/29 18:59:06;;;;;;;9.40;3.87;;;;;10.20;102083.00;;;;10474100;28;20274;-80
2022/01/29 19:04:09;;;;;;;12.50;4.30;;;;;10.20;102083.00;;;;10451851;28;20201;-79
2022/01/29 19:09:11;;;;;;;14.37;4.80;;;;;10.30;102111.00;;;;10478244;28;20215;-79
2022/01/29 19:14:13;;;;;;;12.27;4.80;;;;;10.30;102116.00;;;;10476310;28;20201;-79
2022/01/29 19:19:15;;;;;;;16.23;4.97;;;;;10.30;102128.00;;;;10451817;28;20207;-79
2022/01/29 19:24:17;;;;;;;13.07;4.80;;;;;10.30;102133.00;;;;10459011;28;20194;-80
2022/01/29 19:29:19;;;;;;;20.60;5.10;;;;;10.40;102122.00;;;;10450917;28;20190;-79
2022/01/29 19:34:22;;;;;;;11.63;4.60;;;;;10.40;102122.00;;;;10473872;28;20216;-80
2022/01/29 19:39:25;;;;;;;11.07;5.00;;;;;10.40;102147.00;;;;10448772;28;20206;-79
2022/01/29 19:44:29;;;;;;;12.97;4.47;;;;;10.50;102156.00;;;;10467060;28;20201;-80
2022/01/29 19:49:31;;;;;;;13.73;4.30;;;;;10.40;102175.00;;;;10466511;28;20189;-79
2022/01/29 19:54:33;;;;;;;13.57;4.47;;;;;10.40;102173.00;;;;10469943;28;20201;-80
2022/01/29 19:59:35;;;;;;;8.73;4.90;;;;;10.40;102185.00;;;;10450416;28;20247;-80
2022/01/29 20:04:37;;;;;;;14.73;4.20;;;;;10.40;102188.00;;;;10453199;28;20202;-79
2022/01/29 20:09:39;;;;;;;12.90;5.20;;;;;10.30;102186.00;;;;10496669;28;20209;-79
2022/01/29 20:14:41;;;;;;;13.00;4.67;;;;;10.30;102205.00;;;;10461166;28;20206;-79
2022/01/29 20:19:44;;;;;;;13.50;4.47;;;;;10.10;102210.00;;;;10502409;28;20213;-79
2022/01/29 20:24:46;;;;;;;17.00;4.50;;;;;10.00;102213.00;;;;10459380;28;20197;-79
2022/01/29 20:29:48;;;;;;;15.10;4.93;;;;;9.80;102222.00;;;;10454297;28;20231;-80
2022/01/29 20:34:51;;;;;;;13.10;4.37;;;;;9.60;102232.00;;;;10463010;28;20226;-79
2022/01/29 20:39:54;;;;;;;17.03;3.90;;;;;9.50;102235.00;;;;10453960;28;20202;-79
2022/01/29 20:44:56;;;;;;;19.73;5.23;;;;;9.40;102239.00;;;;10446889;28;20196;-80
2022/01/29 20:49:58;;;;;;;12.97;3.80;;;;;9.20;102236.00;;;;10456706;28;20194;-80
2022/01/29 20:55:00;;;;;;;13.57;3.90;;;;;9.10;102242.00;;;;10459280;28;20669;-80
2022/01/29 21:00:06;;;;;;;23.30;4.00;;;;;9.10;102253.00;;;;10466506;28;20255;-80
2022/01/29 21:05:15;;;;;;;19.10;4.00;;;;;9.00;102260.00;;;;10462726;28;20206;-80
2022/01/29 21:10:17;;;;;;;23.07;4.37;;;;;8.90;102259.00;;;;10469463;28;20632;-80
2022/01/29 21:15:18;;;;;;;24.73;5.93;;;;;8.80;102279.00;;;;10442129;28;20193;-80
2022/01/29 21:20:21;;;;;;;20.50;4.43;;;;;8.60;102273.00;;;;10440032;28;20205;-79
2022/01/29 21:25:25;;;;;;;23.87;4.83;;;;;8.50;102278.00;;;;10427737;28;20203;-79
2022/01/29 21:30:29;;;;;;;29.73;6.40;;;;;8.50;102266.00;;;;10473390;28;20652;-80
2022/01/29 21:35:38;;;;;;;26.97;4.80;;;;;8.40;102273.00;;;;10463502;28;20205;-77
2022/01/29 21:40:40;;;;;;;24.63;4.40;;;;;8.30;102270.00;;;;10469779;28;20205;-77
2022/01/29 21:45:44;;;;;;;22.73;4.73;;;;;8.30;102267.00;;;;10476805;28;20197;-78
2022/01/29 21:50:46;;;;;;;28.30;5.17;;;;;8.20;102287.00;;;;10472841;28;20194;-77
2022/01/29 21:55:48;;;;;;;23.60;4.47;;;;;8.20;102286.00;;;;10457102;28;20205;-77
2022/01/29 22:00:51;;;;;;;20.87;4.30;;;;;8.10;102293.00;;;;10494225;28;20227;-77
2022/01/29 22:05:53;;;;;;;17.80;4.50;;;;;8.00;102292.00;;;;10470715;28;20296;-78
2022/01/29 22:11:15;;;;;;;17.83;4.10;;;;;7.90;102291.00;;;;10484506;28;20224;-77
2022/01/29 22:16:17;;;;;;;28.87;4.80;;;;;7.80;102289.00;;;;10471458;28;20193;-77
2022/01/29 22:21:19;;;;;;;19.83;5.03;;;;;7.80;102299.00;;;;10480143;28;20220;-77
2022/01/29 22:26:22;;;;;;;19.80;4.30;;;;;7.70;102297.00;;;;10493833;28;20209;-77
2022/01/29 22:31:25;;;;;;;24.60;5.27;;;;;7.50;102305.00;;;;10436568;28;20198;-77
2022/01/29 22:36:27;;;;;;;23.43;4.30;;;;;7.50;102316.00;;;;10485929;28;20660;-78
2022/01/29 22:41:29;;;;;;;15.27;3.47;;;;;7.40;102325.00;;;;10485508;28;20301;-78
2022/01/29 22:46:32;;;;;;;22.20;6.23;;;;;7.30;102327.00;;;;10488279;28;20220;-77
2022/01/29 22:51:36;;;;;;;17.20;4.60;;;;;7.10;102327.00;;;;10473166;28;20193;-76
2022/01/29 22:56:39;;;;;;;18.40;4.27;;;;;7.00;102328.00;;;;10487992;28;20219;-77
2022/01/29 23:01:43;;;;;;;13.97;4.20;;;;;7.00;102334.00;;;;10484612;28;20186;-77
2022/01/29 23:06:45;;;;;;;11.77;3.60;;;;;7.00;102354.00;;;;10487530;28;20820;-78
2022/01/29 23:11:48;;;;;;;13.90;3.87;;;;;7.00;102360.00;;;;10450480;28;20225;-77
2022/01/29 23:16:54;;;;;;;14.43;4.00;;;;;7.00;102359.00;;;;10485720;28;20259;-77
2022/01/29 23:27:02;;;;;;;17.50;4.03;;;;;6.70;102378.00;;;;10507957;28;20217;-77
2022/01/29 23:32:09;;;;;;;17.47;2.73;;;;;6.70;102375.00;;;;10488754;28;20193;-77
2022/01/29 23:37:26;;;;;;;17.07;3.80;;;;;6.60;102383.00;;;;10470708;28;20267;-77
2022/01/29 23:52:50;;;;;;;13.13;3.30;;;;;6.50;102373.00;;;;10458154;28;20185;-77
2022/01/29 23:57:52;;;;;;;20.13;3.33;;;;;6.40;102372.00;;;;10481950;28;20232;-77
